sensor_id;sensor_type;location;lat;lon;timestamp;P1;durP1;ratioP1;P2;durP2;ratioP2
69369;SDS011;56530;42.640;23.372;2023-03-25T00:00:56;12.52;;;10.00;;
69369;SDS011;56530;42.640;23.372;2023-03-25T00:03:23;15.07;;;10.00;;
69369;SDS011;56530;42.640;23.372;2023-03-25T00:05:50;11.55;;;9.80;;
69369;SDS011;56530;42.640;23.372;2023-03-25T00:08:18;12.80;;;9.80;;
69369;SDS011;56530;42.640;23.372;2023-03-25T00:10:44;14.38;;;10.00;;
69369;SDS011;56530;42.640;23.372;2023-03-25T00:13:09;10.93;;;8.77;;
69369;SDS011;56530;42.640;23.372;2023-03-25T00:15:40;14.13;;;10.20;;
69369;SDS011;56530;42.640;23.372;2023-03-25T00:18:06;16.50;;;10.07;;
69369;SDS011;56530;42.640;23.372;2023-03-25T00:20:32;12.65;;;10.25;;
69369;SDS011;56530;42.640;23.372;2023-03-25T00:22:57;15.82;;;9.95;;
69369;SDS011;56530;42.640;23.372;2023-03-25T00:25:23;17.58;;;10.52;;
69369;SDS011;56530;42.640;23.372;2023-03-25T00:27:48;11.70;;;9.38;;
69369;SDS011;56530;42.640;23.372;2023-03-25T00:30:15;17.27;;;8.82;;
69369;SDS011;56530;42.640;23.372;2023-03-25T00:32:41;11.88;;;9.15;;
69369;SDS011;56530;42.640;23.372;2023-03-25T00:35:09;12.65;;;9.77;;
69369;SDS011;56530;42.640;23.372;2023-03-25T00:37:35;11.57;;;8.77;;
69369;SDS011;56530;42.640;23.372;2023-03-25T00:40:01;12.48;;;8.68;;
69369;SDS011;56530;42.640;23.372;2023-03-25T00:42:27;14.35;;;9.45;;
69369;SDS011;56530;42.640;23.372;2023-03-25T00:44:53;12.27;;;9.20;;
69369;SDS011;56530;42.640;23.372;2023-03-25T00:47:18;12.27;;;9.52;;
69369;SDS011;56530;42.640;23.372;2023-03-25T00:49:46;17.92;;;10.13;;
69369;SDS011;56530;42.640;23.372;2023-03-25T00:52:12;14.20;;;9.77;;
69369;SDS011;56530;42.640;23.372;2023-03-25T00:54:38;12.88;;;9.80;;
69369;SDS011;56530;42.640;23.372;2023-03-25T00:57:03;12.20;;;8.93;;
69369;SDS011;56530;42.640;23.372;2023-03-25T00:59:29;9.15;;;8.07;;
69369;SDS011;56530;42.640;23.372;2023-03-25T01:01:54;15.38;;;8.48;;
69369;SDS011;56530;42.640;23.372;2023-03-25T01:04:21;11.27;;;9.25;;
69369;SDS011;56530;42.640;23.372;2023-03-25T01:06:47;17.38;;;9.35;;
69369;SDS011;56530;42.640;23.372;2023-03-25T01:09:16;10.32;;;8.65;;
69369;SDS011;56530;42.640;23.372;2023-03-25T01:11:43;9.20;;;7.78;;
69369;SDS011;56530;42.640;23.372;2023-03-25T01:14:13;13.05;;;8.75;;
69369;SDS011;56530;42.640;23.372;2023-03-25T01:16:40;13.13;;;8.65;;
69369;SDS011;56530;42.640;23.372;2023-03-25T01:19:06;15.05;;;9.43;;
69369;SDS011;56530;42.640;23.372;2023-03-25T01:21:32;10.85;;;9.05;;
69369;SDS011;56530;42.640;23.372;2023-03-25T01:23:59;17.55;;;9.23;;
69369;SDS011;56530;42.640;23.372;2023-03-25T01:26:24;13.98;;;8.85;;
69369;SDS011;56530;42.640;23.372;2023-03-25T01:28:50;15.60;;;8.40;;
69369;SDS011;56530;42.640;23.372;2023-03-25T01:31:15;11.55;;;7.88;;
69369;SDS011;56530;42.640;23.372;2023-03-25T01:33:41;10.90;;;8.25;;
69369;SDS011;56530;42.640;23.372;2023-03-25T01:36:07;13.50;;;7.90;;
69369;SDS011;56530;42.640;23.372;2023-03-25T01:38:37;10.68;;;8.18;;
69369;SDS011;56530;42.640;23.372;2023-03-25T01:41:03;10.80;;;7.90;;
69369;SDS011;56530;42.640;23.372;2023-03-25T01:43:30;10.90;;;7.78;;
69369;SDS011;56530;42.640;23.372;2023-03-25T01:45:56;9.68;;;7.25;;
69369;SDS011;56530;42.640;23.372;2023-03-25T01:48:23;8.02;;;6.88;;
69369;SDS011;56530;42.640;23.372;2023-03-25T01:53:42;9.27;;;8.00;;
69369;SDS011;56530;42.640;23.372;2023-03-25T01:56:08;10.25;;;7.75;;
69369;SDS011;56530;42.640;23.372;2023-03-25T01:58:37;10.63;;;7.85;;
69369;SDS011;56530;42.640;23.372;2023-03-25T02:01:03;9.50;;;7.50;;
69369;SDS011;56530;42.640;23.372;2023-03-25T02:03:29;11.20;;;6.72;;
69369;SDS011;56530;42.640;23.372;2023-03-25T02:06:04;8.70;;;6.97;;
69369;SDS011;56530;42.640;23.372;2023-03-25T02:08:32;8.25;;;6.53;;
69369;SDS011;56530;42.640;23.372;2023-03-25T02:11:02;10.18;;;7.00;;
69369;SDS011;56530;42.640;23.372;2023-03-25T02:13:29;9.30;;;6.95;;
69369;SDS011;56530;42.640;23.372;2023-03-25T02:43:57;9.95;;;7.07;;
69369;SDS011;56530;42.640;23.372;2023-03-25T02:46:24;9.02;;;7.25;;
69369;SDS011;56530;42.640;23.372;2023-03-25T02:51:21;10.65;;;7.78;;
69369;SDS011;56530;42.640;23.372;2023-03-25T02:53:50;12.30;;;8.25;;
69369;SDS011;56530;42.640;23.372;2023-03-25T02:56:16;9.45;;;7.07;;
69369;SDS011;56530;42.640;23.372;2023-03-25T02:58:46;10.93;;;8.10;;
69369;SDS011;56530;42.640;23.372;2023-03-25T03:01:13;10.52;;;8.45;;
69369;SDS011;56530;42.640;23.372;2023-03-25T03:03:39;14.77;;;8.45;;
69369;SDS011;56530;42.640;23.372;2023-03-25T03:06:05;10.90;;;7.75;;
69369;SDS011;56530;42.640;23.372;2023-03-25T03:08:38;11.65;;;8.50;;
69369;SDS011;56530;42.640;23.372;2023-03-25T03:22:46;8.10;;;6.82;;
69369;SDS011;56530;42.640;23.372;2023-03-25T03:31:02;12.00;;;8.00;;
69369;SDS011;56530;42.640;23.372;2023-03-25T03:33:36;10.52;;;8.18;;
69369;SDS011;56530;42.640;23.372;2023-03-25T03:36:15;10.80;;;8.52;;
69369;SDS011;56530;42.640;23.372;2023-03-25T03:38:44;16.33;;;7.25;;
69369;SDS011;56530;42.640;23.372;2023-03-25T03:41:14;13.15;;;8.27;;
69369;SDS011;56530;42.640;23.372;2023-03-25T03:46:45;12.70;;;7.68;;
69369;SDS011;56530;42.640;23.372;2023-03-25T03:49:15;11.25;;;7.85;;
69369;SDS011;56530;42.640;23.372;2023-03-25T03:51:47;10.38;;;7.97;;
69369;SDS011;56530;42.640;23.372;2023-03-25T03:54:23;11.18;;;7.80;;
69369;SDS011;56530;42.640;23.372;2023-03-25T03:59:22;12.27;;;8.85;;
69369;SDS011;56530;42.640;23.372;2023-03-25T04:01:53;9.82;;;8.25;;
69369;SDS011;56530;42.640;23.372;2023-03-25T04:04:21;9.68;;;8.50;;
69369;SDS011;56530;42.640;23.372;2023-03-25T04:06:53;14.98;;;8.80;;
69369;SDS011;56530;42.640;23.372;2023-03-25T04:09:22;12.32;;;9.13;;
69369;SDS011;56530;42.640;23.372;2023-03-25T04:11:58;16.65;;;9.88;;
69369;SDS011;56530;42.640;23.372;2023-03-25T04:14:27;14.68;;;10.35;;
69369;SDS011;56530;42.640;23.372;2023-03-25T04:16:53;15.38;;;10.20;;
69369;SDS011;56530;42.640;23.372;2023-03-25T04:19:19;13.57;;;10.15;;
69369;SDS011;56530;42.640;23.372;2023-03-25T04:21:45;15.47;;;10.13;;
69369;SDS011;56530;42.640;23.372;2023-03-25T04:24:12;12.90;;;11.05;;
69369;SDS011;56530;42.640;23.372;2023-03-25T04:26:40;14.18;;;11.40;;
69369;SDS011;56530;42.640;23.372;2023-03-25T04:29:06;13.38;;;10.93;;
69369;SDS011;56530;42.640;23.372;2023-03-25T04:31:33;14.02;;;11.07;;
69369;SDS011;56530;42.640;23.372;2023-03-25T04:33:59;14.97;;;11.40;;
69369;SDS011;56530;42.640;23.372;2023-03-25T04:36:25;14.45;;;11.85;;
69369;SDS011;56530;42.640;23.372;2023-03-25T04:38:57;15.47;;;12.80;;
69369;SDS011;56530;42.640;23.372;2023-03-25T04:41:23;18.58;;;12.82;;
69369;SDS011;56530;42.640;23.372;2023-03-25T04:43:49;17.27;;;11.40;;
69369;SDS011;56530;42.640;23.372;2023-03-25T04:46:15;11.98;;;9.60;;
69369;SDS011;56530;42.640;23.372;2023-03-25T04:48:41;12.95;;;9.80;;
69369;SDS011;56530;42.640;23.372;2023-03-25T04:51:09;17.73;;;9.45;;
69369;SDS011;56530;42.640;23.372;2023-03-25T04:53:36;19.25;;;9.40;;
69369;SDS011;56530;42.640;23.372;2023-03-25T04:56:03;16.85;;;9.23;;
69369;SDS011;56530;42.640;23.372;2023-03-25T04:58:29;10.48;;;8.73;;
69369;SDS011;56530;42.640;23.372;2023-03-25T05:00:55;14.38;;;9.63;;
69369;SDS011;56530;42.640;23.372;2023-03-25T05:03:20;14.07;;;10.40;;
69369;SDS011;56530;42.640;23.372;2023-03-25T05:05:49;17.30;;;11.07;;
69369;SDS011;56530;42.640;23.372;2023-03-25T05:08:15;16.35;;;10.60;;
69369;SDS011;56530;42.640;23.372;2023-03-25T05:10:41;14.57;;;9.85;;
69369;SDS011;56530;42.640;23.372;2023-03-25T05:13:07;12.53;;;10.50;;
69369;SDS011;56530;42.640;23.372;2023-03-25T05:15:33;13.73;;;10.00;;
69369;SDS011;56530;42.640;23.372;2023-03-25T05:18:03;13.55;;;9.00;;
69369;SDS011;56530;42.640;23.372;2023-03-25T05:20:36;11.00;;;8.93;;
69369;SDS011;56530;42.640;23.372;2023-03-25T05:23:04;10.10;;;9.00;;
69369;SDS011;56530;42.640;23.372;2023-03-25T05:25:37;10.50;;;9.32;;
69369;SDS011;56530;42.640;23.372;2023-03-25T05:28:06;11.82;;;9.15;;
69369;SDS011;56530;42.640;23.372;2023-03-25T05:30:38;11.18;;;8.80;;
69369;SDS011;56530;42.640;23.372;2023-03-25T05:33:06;14.13;;;10.18;;
69369;SDS011;56530;42.640;23.372;2023-03-25T05:35:39;14.75;;;10.18;;
69369;SDS011;56530;42.640;23.372;2023-03-25T05:38:06;14.85;;;9.73;;
69369;SDS011;56530;42.640;23.372;2023-03-25T05:40:32;15.80;;;9.73;;
69369;SDS011;56530;42.640;23.372;2023-03-25T05:42:58;12.55;;;9.82;;
69369;SDS011;56530;42.640;23.372;2023-03-25T05:45:24;12.77;;;9.77;;
69369;SDS011;56530;42.640;23.372;2023-03-25T05:47:50;12.80;;;9.40;;
69369;SDS011;56530;42.640;23.372;2023-03-25T05:50:16;11.75;;;9.10;;
69369;SDS011;56530;42.640;23.372;2023-03-25T05:52:41;18.80;;;10.00;;
69369;SDS011;56530;42.640;23.372;2023-03-25T05:55:14;11.73;;;9.65;;
69369;SDS011;56530;42.640;23.372;2023-03-25T05:57:41;18.60;;;11.13;;
69369;SDS011;56530;42.640;23.372;2023-03-25T06:00:07;15.27;;;10.97;;
69369;SDS011;56530;42.640;23.372;2023-03-25T06:02:33;20.52;;;11.55;;
69369;SDS011;56530;42.640;23.372;2023-03-25T06:05:03;19.90;;;9.88;;
69369;SDS011;56530;42.640;23.372;2023-03-25T06:07:34;13.70;;;9.27;;
69369;SDS011;56530;42.640;23.372;2023-03-25T06:10:02;49.10;;;37.10;;
69369;SDS011;56530;42.640;23.372;2023-03-25T06:12:28;10.75;;;9.35;;
69369;SDS011;56530;42.640;23.372;2023-03-25T06:14:57;14.25;;;8.65;;
69369;SDS011;56530;42.640;23.372;2023-03-25T06:17:23;10.43;;;8.57;;
69369;SDS011;56530;42.640;23.372;2023-03-25T06:19:48;15.27;;;9.37;;
69369;SDS011;56530;42.640;23.372;2023-03-25T06:22:14;14.43;;;9.63;;
69369;SDS011;56530;42.640;23.372;2023-03-25T06:24:40;10.70;;;8.93;;
69369;SDS011;56530;42.640;23.372;2023-03-25T06:27:07;11.30;;;8.67;;
69369;SDS011;56530;42.640;23.372;2023-03-25T06:29:36;9.73;;;8.60;;
69369;SDS011;56530;42.640;23.372;2023-03-25T06:32:03;9.23;;;8.33;;
69369;SDS011;56530;42.640;23.372;2023-03-25T06:34:29;12.00;;;8.60;;
69369;SDS011;56530;42.640;23.372;2023-03-25T06:36:56;12.43;;;8.75;;
69369;SDS011;56530;42.640;23.372;2023-03-25T06:39:22;14.15;;;9.60;;
69369;SDS011;56530;42.640;23.372;2023-03-25T06:41:48;16.63;;;10.63;;
69369;SDS011;56530;42.640;23.372;2023-03-25T06:44:15;13.37;;;9.43;;
69369;SDS011;56530;42.640;23.372;2023-03-25T06:46:41;11.68;;;9.43;;
69369;SDS011;56530;42.640;23.372;2023-03-25T06:49:06;9.98;;;8.20;;
69369;SDS011;56530;42.640;23.372;2023-03-25T06:51:32;14.00;;;8.95;;
69369;SDS011;56530;42.640;23.372;2023-03-25T06:53:58;12.97;;;8.93;;
69369;SDS011;56530;42.640;23.372;2023-03-25T06:56:23;14.37;;;9.97;;
69369;SDS011;56530;42.640;23.372;2023-03-25T06:58:49;12.55;;;8.90;;
69369;SDS011;56530;42.640;23.372;2023-03-25T07:01:14;10.00;;;8.15;;
69369;SDS011;56530;42.640;23.372;2023-03-25T07:03:40;9.15;;;8.25;;
69369;SDS011;56530;42.640;23.372;2023-03-25T07:06:06;12.63;;;9.03;;
69369;SDS011;56530;42.640;23.372;2023-03-25T07:08:32;13.70;;;9.15;;
69369;SDS011;56530;42.640;23.372;2023-03-25T07:11:05;13.68;;;8.95;;
69369;SDS011;56530;42.640;23.372;2023-03-25T07:13:37;12.73;;;9.10;;
69369;SDS011;56530;42.640;23.372;2023-03-25T07:16:04;16.23;;;9.17;;
69369;SDS011;56530;42.640;23.372;2023-03-25T07:18:30;12.65;;;8.90;;
69369;SDS011;56530;42.640;23.372;2023-03-25T07:20:55;12.07;;;8.83;;
69369;SDS011;56530;42.640;23.372;2023-03-25T07:23:21;14.67;;;8.60;;
69369;SDS011;56530;42.640;23.372;2023-03-25T07:25:46;9.70;;;8.60;;
69369;SDS011;56530;42.640;23.372;2023-03-25T07:28:12;19.53;;;11.67;;
69369;SDS011;56530;42.640;23.372;2023-03-25T07:30:37;18.33;;;12.17;;
69369;SDS011;56530;42.640;23.372;2023-03-25T07:33:03;17.23;;;11.77;;
69369;SDS011;56530;42.640;23.372;2023-03-25T07:35:28;17.30;;;11.77;;
69369;SDS011;56530;42.640;23.372;2023-03-25T07:37:53;23.57;;;12.20;;
69369;SDS011;56530;42.640;23.372;2023-03-25T07:40:19;20.33;;;11.77;;
69369;SDS011;56530;42.640;23.372;2023-03-25T07:42:44;15.90;;;11.07;;
69369;SDS011;56530;42.640;23.372;2023-03-25T07:45:10;20.40;;;12.68;;
69369;SDS011;56530;42.640;23.372;2023-03-25T07:47:36;18.75;;;12.10;;
69369;SDS011;56530;42.640;23.372;2023-03-25T07:50:01;20.57;;;12.13;;
69369;SDS011;56530;42.640;23.372;2023-03-25T07:52:27;16.13;;;10.95;;
69369;SDS011;56530;42.640;23.372;2023-03-25T07:54:53;22.00;;;11.40;;
69369;SDS011;56530;42.640;23.372;2023-03-25T07:57:18;13.67;;;10.70;;
69369;SDS011;56530;42.640;23.372;2023-03-25T07:59:44;14.07;;;11.60;;
69369;SDS011;56530;42.640;23.372;2023-03-25T08:02:13;14.77;;;11.20;;
69369;SDS011;56530;42.640;23.372;2023-03-25T08:04:39;15.82;;;12.13;;
69369;SDS011;56530;42.640;23.372;2023-03-25T08:07:04;21.95;;;11.38;;
69369;SDS011;56530;42.640;23.372;2023-03-25T08:09:30;14.70;;;11.60;;
69369;SDS011;56530;42.640;23.372;2023-03-25T08:11:57;18.02;;;11.35;;
69369;SDS011;56530;42.640;23.372;2023-03-25T08:14:23;17.03;;;11.90;;
69369;SDS011;56530;42.640;23.372;2023-03-25T08:16:49;13.43;;;11.00;;
69369;SDS011;56530;42.640;23.372;2023-03-25T08:19:15;14.40;;;11.00;;
69369;SDS011;56530;42.640;23.372;2023-03-25T08:21:40;16.05;;;11.15;;
69369;SDS011;56530;42.640;23.372;2023-03-25T08:24:06;14.23;;;11.00;;
69369;SDS011;56530;42.640;23.372;2023-03-25T08:26:32;16.00;;;10.88;;
69369;SDS011;56530;42.640;23.372;2023-03-25T08:28:58;15.57;;;11.10;;
69369;SDS011;56530;42.640;23.372;2023-03-25T08:31:26;13.68;;;10.77;;
69369;SDS011;56530;42.640;23.372;2023-03-25T08:34:01;12.85;;;11.15;;
69369;SDS011;56530;42.640;23.372;2023-03-25T08:36:27;14.05;;;10.80;;
69369;SDS011;56530;42.640;23.372;2023-03-25T08:38:53;16.60;;;10.55;;
69369;SDS011;56530;42.640;23.372;2023-03-25T08:41:19;15.83;;;10.73;;
69369;SDS011;56530;42.640;23.372;2023-03-25T08:43:44;13.15;;;10.77;;
69369;SDS011;56530;42.640;23.372;2023-03-25T08:46:10;17.13;;;11.18;;
69369;SDS011;56530;42.640;23.372;2023-03-25T08:48:35;15.07;;;10.40;;
69369;SDS011;56530;42.640;23.372;2023-03-25T08:51:01;15.80;;;10.13;;
69369;SDS011;56530;42.640;23.372;2023-03-25T08:53:27;14.18;;;11.25;;
69369;SDS011;56530;42.640;23.372;2023-03-25T08:55:53;14.27;;;10.83;;
69369;SDS011;56530;42.640;23.372;2023-03-25T08:58:20;14.50;;;9.82;;
69369;SDS011;56530;42.640;23.372;2023-03-25T09:00:47;16.65;;;10.93;;
69369;SDS011;56530;42.640;23.372;2023-03-25T09:03:13;17.48;;;10.38;;
69369;SDS011;56530;42.640;23.372;2023-03-25T09:05:38;14.83;;;9.57;;
69369;SDS011;56530;42.640;23.372;2023-03-25T09:08:04;14.82;;;10.65;;
69369;SDS011;56530;42.640;23.372;2023-03-25T09:10:30;19.27;;;10.57;;
69369;SDS011;56530;42.640;23.372;2023-03-25T09:12:56;18.60;;;10.07;;
69369;SDS011;56530;42.640;23.372;2023-03-25T09:15:21;16.75;;;10.88;;
69369;SDS011;56530;42.640;23.372;2023-03-25T09:17:47;15.88;;;10.68;;
69369;SDS011;56530;42.640;23.372;2023-03-25T09:20:12;16.47;;;10.83;;
69369;SDS011;56530;42.640;23.372;2023-03-25T09:22:38;14.33;;;10.40;;
69369;SDS011;56530;42.640;23.372;2023-03-25T09:25:04;16.45;;;9.82;;
69369;SDS011;56530;42.640;23.372;2023-03-25T09:27:31;19.67;;;10.70;;
69369;SDS011;56530;42.640;23.372;2023-03-25T09:29:57;21.05;;;9.55;;
69369;SDS011;56530;42.640;23.372;2023-03-25T09:32:22;14.63;;;10.27;;
69369;SDS011;56530;42.640;23.372;2023-03-25T09:34:48;17.53;;;11.03;;
69369;SDS011;56530;42.640;23.372;2023-03-25T09:37:13;19.00;;;10.67;;
69369;SDS011;56530;42.640;23.372;2023-03-25T09:39:39;13.83;;;10.57;;
69369;SDS011;56530;42.640;23.372;2023-03-25T09:47:29;16.98;;;10.57;;
69369;SDS011;56530;42.640;23.372;2023-03-25T09:49:58;16.30;;;9.90;;
69369;SDS011;56530;42.640;23.372;2023-03-25T09:52:26;16.70;;;10.43;;
69369;SDS011;56530;42.640;23.372;2023-03-25T09:54:54;17.38;;;10.00;;
69369;SDS011;56530;42.640;23.372;2023-03-25T09:57:26;15.82;;;9.27;;
69369;SDS011;56530;42.640;23.372;2023-03-25T09:59:55;14.50;;;9.82;;
69369;SDS011;56530;42.640;23.372;2023-03-25T10:11:50;17.13;;;9.70;;
69369;SDS011;56530;42.640;23.372;2023-03-25T10:14:27;20.70;;;10.00;;
69369;SDS011;56530;42.640;23.372;2023-03-25T10:17:05;17.50;;;10.82;;
69369;SDS011;56530;42.640;23.372;2023-03-25T10:24:49;14.17;;;8.20;;
69369;SDS011;56530;42.640;23.372;2023-03-25T10:27:38;11.73;;;7.80;;
69369;SDS011;56530;42.640;23.372;2023-03-25T10:32:39;16.65;;;8.27;;
69369;SDS011;56530;42.640;23.372;2023-03-25T10:35:08;11.68;;;7.28;;
69369;SDS011;56530;42.640;23.372;2023-03-25T10:37:45;15.60;;;7.90;;
69369;SDS011;56530;42.640;23.372;2023-03-25T10:43:11;14.07;;;5.72;;
69369;SDS011;56530;42.640;23.372;2023-03-25T10:45:41;11.38;;;7.38;;
69369;SDS011;56530;42.640;23.372;2023-03-25T10:48:15;9.17;;;5.47;;
69369;SDS011;56530;42.640;23.372;2023-03-25T10:50:51;10.00;;;7.00;;
69369;SDS011;56530;42.640;23.372;2023-03-25T10:53:24;12.38;;;7.13;;
69369;SDS011;56530;42.640;23.372;2023-03-25T10:56:06;10.15;;;7.07;;
69369;SDS011;56530;42.640;23.372;2023-03-25T10:58:35;8.07;;;5.50;;
69369;SDS011;56530;42.640;23.372;2023-03-25T11:01:09;8.70;;;5.10;;
69369;SDS011;56530;42.640;23.372;2023-03-25T11:03:40;12.00;;;5.30;;
69369;SDS011;56530;42.640;23.372;2023-03-25T11:06:06;6.45;;;4.75;;
69369;SDS011;56530;42.640;23.372;2023-03-25T11:08:32;6.85;;;5.53;;
69369;SDS011;56530;42.640;23.372;2023-03-25T11:10:58;6.20;;;5.13;;
69369;SDS011;56530;42.640;23.372;2023-03-25T11:13:28;9.68;;;4.85;;
69369;SDS011;56530;42.640;23.372;2023-03-25T11:15:56;8.80;;;4.90;;
69369;SDS011;56530;42.640;23.372;2023-03-25T11:18:34;9.30;;;4.55;;
69369;SDS011;56530;42.640;23.372;2023-03-25T11:21:04;10.38;;;5.22;;
69369;SDS011;56530;42.640;23.372;2023-03-25T11:23:33;8.75;;;5.53;;
69369;SDS011;56530;42.640;23.372;2023-03-25T11:26:22;6.93;;;4.95;;
69369;SDS011;56530;42.640;23.372;2023-03-25T11:28:48;8.13;;;5.70;;
69369;SDS011;56530;42.640;23.372;2023-03-25T11:31:35;8.93;;;5.00;;
69369;SDS011;56530;42.640;23.372;2023-03-25T11:36:41;5.95;;;4.93;;
69369;SDS011;56530;42.640;23.372;2023-03-25T11:41:48;5.38;;;4.78;;
69369;SDS011;56530;42.640;23.372;2023-03-25T11:44:20;10.53;;;5.10;;
69369;SDS011;56530;42.640;23.372;2023-03-25T11:46:48;10.30;;;5.20;;
69369;SDS011;56530;42.640;23.372;2023-03-25T11:49:15;9.80;;;5.55;;
69369;SDS011;56530;42.640;23.372;2023-03-25T11:51:45;9.32;;;4.45;;
69369;SDS011;56530;42.640;23.372;2023-03-25T11:54:11;7.35;;;4.60;;
69369;SDS011;56530;42.640;23.372;2023-03-25T11:56:40;7.40;;;4.20;;
69369;SDS011;56530;42.640;23.372;2023-03-25T11:59:16;5.57;;;4.30;;
69369;SDS011;56530;42.640;23.372;2023-03-25T12:01:47;6.47;;;4.80;;
69369;SDS011;56530;42.640;23.372;2023-03-25T12:04:14;4.95;;;4.07;;
69369;SDS011;56530;42.640;23.372;2023-03-25T12:09:18;5.55;;;4.43;;
69369;SDS011;56530;42.640;23.372;2023-03-25T12:15:00;9.10;;;4.20;;
69369;SDS011;56530;42.640;23.372;2023-03-25T12:34:18;6.60;;;3.80;;
69369;SDS011;56530;42.640;23.372;2023-03-25T12:37:19;9.85;;;4.18;;
69369;SDS011;56530;42.640;23.372;2023-03-25T12:39:55;8.27;;;3.83;;
69369;SDS011;56530;42.640;23.372;2023-03-25T12:51:06;4.70;;;3.83;;
69369;SDS011;56530;42.640;23.372;2023-03-25T13:02:13;6.78;;;3.67;;
69369;SDS011;56530;42.640;23.372;2023-03-25T13:07:26;6.35;;;3.60;;
69369;SDS011;56530;42.640;23.372;2023-03-25T13:12:29;5.50;;;4.05;;
69369;SDS011;56530;42.640;23.372;2023-03-25T13:17:27;7.22;;;4.07;;
69369;SDS011;56530;42.640;23.372;2023-03-25T13:19:58;7.65;;;4.55;;
69369;SDS011;56530;42.640;23.372;2023-03-25T13:22:27;5.97;;;3.50;;
69369;SDS011;56530;42.640;23.372;2023-03-25T13:24:57;6.28;;;4.25;;
69369;SDS011;56530;42.640;23.372;2023-03-25T13:27:29;6.20;;;3.53;;
69369;SDS011;56530;42.640;23.372;2023-03-25T13:29:56;6.15;;;3.90;;
69369;SDS011;56530;42.640;23.372;2023-03-25T13:32:28;6.82;;;4.00;;
69369;SDS011;56530;42.640;23.372;2023-03-25T13:35:02;4.40;;;3.80;;
69369;SDS011;56530;42.640;23.372;2023-03-25T13:37:46;8.93;;;3.53;;
69369;SDS011;56530;42.640;23.372;2023-03-25T13:43:06;5.72;;;3.58;;
69369;SDS011;56530;42.640;23.372;2023-03-25T13:48:18;8.02;;;3.78;;
69369;SDS011;56530;42.640;23.372;2023-03-25T13:50:50;9.73;;;4.20;;
69369;SDS011;56530;42.640;23.372;2023-03-25T14:04:46;8.50;;;3.90;;
69369;SDS011;56530;42.640;23.372;2023-03-25T14:07:33;5.88;;;3.63;;
69369;SDS011;56530;42.640;23.372;2023-03-25T14:13:03;6.10;;;3.75;;
69369;SDS011;56530;42.640;23.372;2023-03-25T14:15:37;4.90;;;3.90;;
69369;SDS011;56530;42.640;23.372;2023-03-25T14:18:12;7.50;;;4.25;;
69369;SDS011;56530;42.640;23.372;2023-03-25T14:20:40;4.40;;;3.95;;
69369;SDS011;56530;42.640;23.372;2023-03-25T14:23:06;6.80;;;4.00;;
69369;SDS011;56530;42.640;23.372;2023-03-25T14:25:37;5.57;;;4.30;;
69369;SDS011;56530;42.640;23.372;2023-03-25T14:28:04;6.20;;;4.85;;
69369;SDS011;56530;42.640;23.372;2023-03-25T14:30:32;5.75;;;3.78;;
69369;SDS011;56530;42.640;23.372;2023-03-25T14:32:57;6.03;;;4.35;;
69369;SDS011;56530;42.640;23.372;2023-03-25T14:49:17;6.30;;;4.57;;
69369;SDS011;56530;42.640;23.372;2023-03-25T14:56:51;5.93;;;4.00;;
69369;SDS011;56530;42.640;23.372;2023-03-25T14:59:20;6.82;;;4.25;;
69369;SDS011;56530;42.640;23.372;2023-03-25T15:01:50;7.13;;;4.55;;
69369;SDS011;56530;42.640;23.372;2023-03-25T15:04:27;6.60;;;4.43;;
69369;SDS011;56530;42.640;23.372;2023-03-25T15:06:55;7.13;;;4.40;;
69369;SDS011;56530;42.640;23.372;2023-03-25T15:09:21;6.07;;;4.78;;
69369;SDS011;56530;42.640;23.372;2023-03-25T15:11:56;8.73;;;5.93;;
69369;SDS011;56530;42.640;23.372;2023-03-25T15:14:34;13.75;;;6.70;;
69369;SDS011;56530;42.640;23.372;2023-03-25T15:17:05;9.27;;;6.53;;
69369;SDS011;56530;42.640;23.372;2023-03-25T15:22:26;7.03;;;5.22;;
69369;SDS011;56530;42.640;23.372;2023-03-25T15:24:53;6.77;;;5.00;;
69369;SDS011;56530;42.640;23.372;2023-03-25T15:57:13;4.95;;;4.45;;
69369;SDS011;56530;42.640;23.372;2023-03-25T16:00:05;6.60;;;5.05;;
69369;SDS011;56530;42.640;23.372;2023-03-25T16:05:33;5.38;;;4.88;;
69369;SDS011;56530;42.640;23.372;2023-03-25T16:08:04;6.68;;;5.30;;
69369;SDS011;56530;42.640;23.372;2023-03-25T16:10:32;6.70;;;6.10;;
69369;SDS011;56530;42.640;23.372;2023-03-25T16:13:10;6.75;;;6.05;;
69369;SDS011;56530;42.640;23.372;2023-03-25T16:15:37;7.85;;;5.05;;
69369;SDS011;56530;42.640;23.372;2023-03-25T16:18:03;5.97;;;5.30;;
69369;SDS011;56530;42.640;23.372;2023-03-25T16:20:31;6.78;;;4.70;;
69369;SDS011;56530;42.640;23.372;2023-03-25T16:22:58;7.57;;;4.53;;
69369;SDS011;56530;42.640;23.372;2023-03-25T16:25:32;6.93;;;4.90;;
69369;SDS011;56530;42.640;23.372;2023-03-25T16:28:26;4.90;;;4.40;;
69369;SDS011;56530;42.640;23.372;2023-03-25T16:30:51;8.23;;;5.90;;
69369;SDS011;56530;42.640;23.372;2023-03-25T16:33:18;9.37;;;5.50;;
69369;SDS011;56530;42.640;23.372;2023-03-25T16:35:52;7.50;;;5.35;;
69369;SDS011;56530;42.640;23.372;2023-03-25T16:38:21;12.85;;;6.85;;
69369;SDS011;56530;42.640;23.372;2023-03-25T16:40:49;8.15;;;5.15;;
69369;SDS011;56530;42.640;23.372;2023-03-25T16:43:19;10.18;;;5.53;;
69369;SDS011;56530;42.640;23.372;2023-03-25T16:45:47;6.07;;;4.95;;
69369;SDS011;56530;42.640;23.372;2023-03-25T16:48:17;6.30;;;4.43;;
69369;SDS011;56530;42.640;23.372;2023-03-25T16:50:46;5.73;;;4.33;;
69369;SDS011;56530;42.640;23.372;2023-03-25T16:53:14;11.48;;;4.63;;
69369;SDS011;56530;42.640;23.372;2023-03-25T16:58:20;6.07;;;5.22;;
69369;SDS011;56530;42.640;23.372;2023-03-25T17:00:50;5.10;;;4.32;;
69369;SDS011;56530;42.640;23.372;2023-03-25T17:06:22;10.13;;;5.97;;
69369;SDS011;56530;42.640;23.372;2023-03-25T17:08:54;6.38;;;5.30;;
69369;SDS011;56530;42.640;23.372;2023-03-25T17:11:20;10.25;;;5.68;;
69369;SDS011;56530;42.640;23.372;2023-03-25T17:13:47;9.00;;;6.45;;
69369;SDS011;56530;42.640;23.372;2023-03-25T17:16:16;10.20;;;6.93;;
69369;SDS011;56530;42.640;23.372;2023-03-25T17:18:42;10.98;;;7.03;;
69369;SDS011;56530;42.640;23.372;2023-03-25T17:21:11;10.20;;;7.22;;
69369;SDS011;56530;42.640;23.372;2023-03-25T17:23:45;8.57;;;6.85;;
69369;SDS011;56530;42.640;23.372;2023-03-25T17:26:12;12.13;;;7.53;;
69369;SDS011;56530;42.640;23.372;2023-03-25T17:31:38;10.52;;;6.60;;
69369;SDS011;56530;42.640;23.372;2023-03-25T17:36:42;7.95;;;5.63;;
69369;SDS011;56530;42.640;23.372;2023-03-25T17:39:21;10.05;;;5.70;;
69369;SDS011;56530;42.640;23.372;2023-03-25T17:42:12;11.23;;;6.40;;
69369;SDS011;56530;42.640;23.372;2023-03-25T17:44:38;13.10;;;6.43;;
69369;SDS011;56530;42.640;23.372;2023-03-25T17:47:07;9.88;;;6.70;;
69369;SDS011;56530;42.640;23.372;2023-03-25T17:49:37;12.73;;;5.77;;
69369;SDS011;56530;42.640;23.372;2023-03-25T17:52:02;9.80;;;5.80;;
69369;SDS011;56530;42.640;23.372;2023-03-25T17:54:28;9.25;;;5.38;;
69369;SDS011;56530;42.640;23.372;2023-03-25T17:56:53;8.43;;;6.05;;
69369;SDS011;56530;42.640;23.372;2023-03-25T17:59:19;7.57;;;5.40;;
69369;SDS011;56530;42.640;23.372;2023-03-25T18:01:46;6.75;;;5.47;;
69369;SDS011;56530;42.640;23.372;2023-03-25T18:04:14;9.57;;;6.25;;
69369;SDS011;56530;42.640;23.372;2023-03-25T18:06:40;11.45;;;6.28;;
69369;SDS011;56530;42.640;23.372;2023-03-25T18:09:09;9.05;;;6.18;;
69369;SDS011;56530;42.640;23.372;2023-03-25T18:11:39;13.00;;;6.78;;